This demonstration page uses our WeatherBlox Daily Observations layout. Learn more.

39.92423, -83.80882

Hourly Observations for July 25, 2016

Temp ( °F °C ) Dew Point ( °F °C ) Humidity (%) Winds ( mph kmh ) Pressure ( in mb ) Visibility ( mi km ) Precip ( " mm )
12:56 am 00:56 Clear 77 25 74 23.3 90 90 SW 3 6 29.97 1015 10 16.0934 0 0
1:56 am 01:56 Clear 77 25 75 23.9 94 94 S 3 6 29.98 1015 8 12.87472 0 0
2:56 am 02:56 Partly Cloudy 76 24.4 74 23.3 94 94 WSW 5 7 29.98 1015 8 12.87472 0 0
3:56 am 03:56 Mostly Cloudy 77 25 74 23.3 90 90 SW 8 13 29.97 1015 8 12.87472 0 0
4:56 am 04:56 Clear with Mist and Fog 76 24.4 74 23.3 94 94 SSW 7 11 29.95 1014 6 9.65604 0 0
5:56 am 05:56 Clear with Mist and Fog 75 23.9 74 23.3 96 96 SW 7 11 N/A 5 8.0467 0 0
6:56 am 06:56 Sunny with Mist and Fog 75 23.9 74 23.3 96 96 SW 3 6 N/A 3 4.82802 0 0
7:33 am 07:33 Sunny with Mist and Fog 75 24 73 23 94 94 SW 6 9 30 1016 2.5 4.02335 0 0
7:56 am 07:56 Sunny with Mist and Fog 77 25 76 24.4 96 96 WSW 7 11 29.98 1015 4 6.43736 0 0
8:56 am 08:56 Sunny 81 27.2 74 23.3 79 79 undefined N/A 29.98 1015 10 16.0934 0 0
9:56 am 09:56 Sunny 83 28.3 69 20.6 63 63 W 10 17 29.99 1016 10 16.0934 0 0
10:56 am 10:56 Sunny 85 29.4 68 20 57 57 WNW 10 17 30 1016 10 16.0934 0 0
11:56 am 11:56 Sunny 85 29.4 69 20.6 59 59 WSW 6 9 30.01 1016 10 16.0934 0 0
12:56 pm 12:56 Sunny 87 30.6 70 21.1 57 57 W 8 13 30 1016 10 16.0934 0 0
1:56 pm 13:56 Sunny 88 31.1 70 21.1 55 55 W 10 17 N/A 10 16.0934 0 0
2:56 pm 14:56 Mostly Sunny 88 31.1 71 21.7 57 57 W 9 15 29.98 1015 10 16.0934 0 0
3:56 pm 15:56 Sunny 90 32.2 71 21.7 54 54 W 14 22 29.95 1014 10 16.0934 0 0
4:56 pm 16:56 Sunny 90 32.2 69 20.6 50 50 WNW 10 17 29.95 1014 10 16.0934 0 0
5:56 pm 17:56 Sunny 89 31.7 69 20.6 52 52 WNW 8 13 29.94 1014 10 16.0934 0 0
6:56 pm 18:56 Sunny 86 30 68 20 55 55 undefined N/A 29.95 1014 10 16.0934 0 0
7:56 pm 19:56 Sunny 85 29.4 70 21.1 61 61 WNW 7 11 29.96 1014 10 16.0934 0 0
8:56 pm 20:56 Clear 79 26.1 72 22.2 79 79 SW 5 7 29.97 1015 10 16.0934 0 0
9:56 pm 21:56 Clear 78 25.6 71 21.7 79 79 W 5 7 29.98 1015 10 16.0934 0 0
10:56 pm 22:56 Partly Cloudy 76 24.4 72 22.2 88 88 W 5 7 29.99 1016 10 16.0934 0 0
11:56 pm 23:56 Clear 74 23.3 71 21.7 91 91 Calm 29.99 1016 10 16.0934 0 0

Powered by AerisWeather